Fallon Nas (Van Voorhis Fld) Information

FAA: NFL - ICAO: KNFL

Fallon Nas (Van Voorhis Fld) (Airport) Location

State Nevada
County Churchill
City Fallon
Fallon Nas (Van Voorhis Fld) (Airport) is 3 miles northeast of Fallon, NV.
Latitude 39-25-04.1900N
Longitude 118-41-54.9180W
Elevation 3,934ft

Fallon Nas (Van Voorhis Fld) METARs

METAR KNFL 281456Z 32003KT 10SM CLR 05/04 A3039 RMK AO2 SLP248 T00500039 53003
Altimeter 30.39"
Temperature 5.0°C (41.0°F)
Wind 320° at 3KT
Clouds Skies are clear.
Visibility 10.0mi
Time observed: 2021-10-28T14:56:00Z

Fallon Nas (Van Voorhis Fld) (Airport) Details

Status Operational
Activation December 1942
Ownership Military - Navy
Usage Private
Chart SAN FRANCISCO
ATC on-site Yes
Beacon schedule sunset-sunrise
Beacon color split clear green

Fallon Nas (Van Voorhis Fld) (Airport) Contacts

Owner US NAVY
Owner address OCEANOGRAPHIC OFC - CODE 3142, WASHINGTON, DC 20373
Owner phone N/A
Manager LANCE WOOLF
Manager address 1600 MEDICAL PARKWAY, CARSON CITY, NV 89702
Manager phone 775-445-8023

Fallon Nas (Van Voorhis Fld) Radio Frequencies

Fallon Nas (Van Voorhis Fld) (Airport) Radio Frequencies

UNICOM N/A
Common traffic advisory frequency (CTAF) N/A